Terminal Aerodrome Forecast
Issued by NWS Blacksburg, VA

Current Version | Previous Version | Graphics & Text | Print | Product List | Glossary On
Versions: 1 2 3 4 5 6 7 8 9 10 11 12 13 14 15 16 17 18 19 20 21 22 23 24 25 26 27 28 29 30 31 32 33 34 35
000
FTUS41 KRNK 261740
TAFBLF
TAF
KBLF 261740Z 2618/2718 26005KT 4SM -RASN OVC004
     FM262000 30010G16KT 1SM -SN OVC004
      TEMPO 2621/2623 1/2SM SN VV002
     FM270000 30010G16KT 4SM -SN OVC007
     FM270600 30009KT 6SM -SN OVC012=

USA.gov is the U.S. government's official web portal to all federal, state and local government web resources and services.